Impacts METAR Board
IDs:

KCLE - Cleveland/Hopkins In, OH, US

Updated at: 0700 UTC 18 Sep 2021
Potential Impact None Slight Moderate High
Time 17/19Z 17/20Z 17/21Z 17/22Z 17/23Z 18/00Z 18/01Z 18/02Z 18/03Z 18/04Z 18/05Z 18/06Z 18/07Z
Temp82 82 81 80 78 76 74 74 73 71 73 70 69
Dewpt68 68 67 67 66 65 64 65 66 65 66 65 65
Altim30.11 30.09 30.09 30.08 30.08 30.07 30.07 30.08 30.09 30.09 30.09 30.09 30.09
VIS10 10 10 10 10 10 10 10 10 10 10 10 10
CIG-- -- -- -- -- -- -- -- -- -- -- -- --
CoverFEWFEWFEWCLRCLRCLRFEWCLRCLRSCTFEWFEWFEW
FltCatVFRVFRVFRVFRVFRVFRVFRVFRVFRVFRVFRVFRVFR
WX--------------------------
WDir360360103602040140000190220230
WSpd6 6 7 6 6 5 4 0 0 0 7 3 4
WGst-- -- -- -- -- -- -- -- -- -- -- -- --
Raw hourly METARs
KCLE 171851Z 36006KT 10SM FEW050 28/20 A3011 RMK AO2 SLP204 T02780200
KCLE 171951Z 36006KT 10SM FEW044 28/20 A3009 RMK AO2 SLP199 T02780200
KCLE 172051Z 01007KT 10SM FEW044 27/19 A3009 RMK AO2 SLP198 T02720194 56015
KCLE 172151Z 36006KT 10SM CLR 27/19 A3008 RMK AO2 SLP197 T02670194
KCLE 172251Z 02006KT 10SM CLR 26/19 A3008 RMK AO2 SLP195 T02560189
KCLE 172351Z 04005KT 10SM CLR 24/18 A3007 RMK AO2 SLP193 T02440183 10278 20244 58005
KCLE 180051Z 14004KT 10SM FEW090 23/18 A3007 RMK AO2 SLP194 T02330178
KCLE 180151Z 00000KT 10SM CLR 23/18 A3008 RMK AO2 SLP197 T02330183
KCLE 180251Z 00000KT 10SM CLR 23/19 A3009 RMK AO2 SLP197 T02280189 51005
KCLE 180351Z 00000KT 10SM SCT060 22/18 A3009 RMK AO2 SLP200 T02170183
KCLE 180451Z 19007KT 10SM FEW060 23/19 A3009 RMK AO2 SLP197 T02280189 402830183
KCLE 180551Z 22003KT 10SM FEW055 21/18 A3009 RMK AO2 SLP197 T02110183 10244 20211 50000
KCLE 180651Z 23004KT 10SM FEW055 21/18 A3009 RMK AO2 SLP200 T02060183



Page loaded:  07:40 UTC  |   12:40 AM Pacific  |   01:40 AM Mountain  |   02:40 AM Central  |   03:40 AM Eastern

 

ADVISORIES

FORECASTS

FORECASTS

OBSERVATIONS

USER TOOLS

ABOUT US